Time;durP1;ratioP1;P1;durP2;ratioP2;P2;SDS_P1;SDS_P2;PMS_P1;PMS_P2;Temp;Humidity;BMP_temperature;BMP_pressure;BME280_temperature;BME280_humidity;BME280_pressure;Samples;Min_cycle;Max_cycle;Signal;HPM_P1;HPM_P2
2021/03/26 00:02:04;;;;;;;11.77;8.67;;;;;;;;;;4974861;28;20451;-77
2021/03/26 00:04:30;;;;;;;13.20;9.50;;;;;;;;;;4974804;28;20533;-77
2021/03/26 00:06:56;;;;;;;10.63;8.57;;;;;;;;;;4974914;28;20885;-77
2021/03/26 00:12:26;;;;;;;8.80;7.60;;;;;;;;;;4974887;28;20493;-77
2021/03/26 00:14:52;;;;;;;14.40;8.97;;;;;;;;;;4974682;28;20486;-78
2021/03/26 00:17:18;;;;;;;11.17;8.83;;;;;;;;;;4974578;28;20510;-78
2021/03/26 00:19:44;;;;;;;15.03;9.57;;;;;;;;;;4974668;28;20750;-78
2021/03/26 00:27:58;;;;;;;11.20;7.80;;;;;;;;;;4974514;28;20427;-77
2021/03/26 00:30:25;;;;;;;10.07;7.80;;;;;;;;;;4957147;28;20486;-76
2021/03/26 00:32:51;;;;;;;11.37;7.63;;;;;;;;;;4974542;28;20403;-78
2021/03/26 00:35:19;;;;;;;8.87;8.00;;;;;;;;;;4973927;28;20581;-76
2021/03/26 00:37:45;;;;;;;11.37;7.60;;;;;;;;;;4974179;28;20418;-77
2021/03/26 00:40:13;;;;;;;11.87;8.30;;;;;;;;;;4974483;28;20418;-77
2021/03/26 00:42:39;;;;;;;11.10;7.83;;;;;;;;;;4974161;28;20781;-77
2021/03/26 00:45:05;;;;;;;9.73;8.60;;;;;;;;;;4974225;28;20475;-76
2021/03/26 00:47:31;;;;;;;9.50;8.47;;;;;;;;;;4974288;28;20402;-77
2021/03/26 00:49:58;;;;;;;9.60;8.07;;;;;;;;;;4974117;28;20405;-77
2021/03/26 00:52:24;;;;;;;9.93;8.37;;;;;;;;;;4974201;28;20551;-77
2021/03/26 00:54:50;;;;;;;10.03;8.13;;;;;;;;;;4974314;28;20404;-76
2021/03/26 00:57:16;;;;;;;10.20;8.77;;;;;;;;;;4974109;28;20914;-77
2021/03/26 00:59:42;;;;;;;10.83;8.63;;;;;;;;;;4974148;28;20408;-78
2021/03/26 01:02:08;;;;;;;10.60;7.90;;;;;;;;;;4974155;28;20774;-78
2021/03/26 01:04:34;;;;;;;11.50;8.73;;;;;;;;;;4974151;28;20462;-78
2021/03/26 01:07:00;;;;;;;11.63;9.00;;;;;;;;;;4974235;28;20410;-79
2021/03/26 01:12:29;;;;;;;14.57;8.87;;;;;;;;;;4978408;28;20453;-77
2021/03/26 01:14:55;;;;;;;8.80;7.30;;;;;;;;;;4978322;28;20412;-78
2021/03/26 01:17:21;;;;;;;13.77;7.63;;;;;;;;;;4978147;28;20506;-77
2021/03/26 01:19:47;;;;;;;9.77;7.67;;;;;;;;;;4977494;28;20501;-77
2021/03/26 01:22:13;;;;;;;13.60;7.40;;;;;;;;;;4977913;28;20496;-77
2021/03/26 01:27:43;;;;;;;9.47;8.03;;;;;;;;;;4978024;28;20422;-77
2021/03/26 01:30:10;;;;;;;8.10;6.93;;;;;;;;;;4960528;28;20800;-77
2021/03/26 01:32:36;;;;;;;11.83;8.70;;;;;;;;;;4977659;28;20905;-78
2021/03/26 01:35:03;;;;;;;10.20;8.53;;;;;;;;;;4977365;28;20473;-77
2021/03/26 01:37:29;;;;;;;11.30;7.50;;;;;;;;;;4977507;28;20406;-76
2021/03/26 01:43:08;;;;;;;9.97;6.37;;;;;;;;;;4977444;28;20500;-77
2021/03/26 01:45:34;;;;;;;18.30;8.30;;;;;;;;;;4977531;28;20423;-77
2021/03/26 01:48:00;;;;;;;8.27;6.77;;;;;;;;;;4977386;28;20411;-77
2021/03/26 01:50:30;;;;;;;9.27;7.70;;;;;;;;;;4977193;28;20442;-76
2021/03/26 01:52:56;;;;;;;8.53;7.10;;;;;;;;;;4977291;28;20759;-77
2021/03/26 01:55:30;;;;;;;9.03;7.57;;;;;;;;;;4977331;28;20422;-77
2021/03/26 01:57:56;;;;;;;8.50;7.47;;;;;;;;;;4977341;28;20407;-77
2021/03/26 02:00:29;;;;;;;10.90;7.43;;;;;;;;;;4977267;28;20411;-78
2021/03/26 02:02:56;;;;;;;13.90;8.13;;;;;;;;;;4977356;28;20843;-79
2021/03/26 02:05:24;;;;;;;8.30;7.30;;;;;;;;;;4977035;28;20505;-78
2021/03/26 02:07:51;;;;;;;8.70;6.50;;;;;;;;;;4977014;28;20411;-78
2021/03/26 02:10:18;;;;;;;12.43;8.20;;;;;;;;;;4977463;28;20501;-78
2021/03/26 02:12:45;;;;;;;8.73;7.40;;;;;;;;;;4977113;28;20415;-78
2021/03/26 02:15:19;;;;;;;9.87;8.23;;;;;;;;;;4976995;28;20507;-78
2021/03/26 02:17:45;;;;;;;11.23;7.87;;;;;;;;;;4976921;28;21028;-78
2021/03/26 02:20:18;;;;;;;12.00;8.53;;;;;;;;;;4976623;28;20551;-77
2021/03/26 02:22:44;;;;;;;8.97;7.57;;;;;;;;;;4975791;28;20414;-77
2021/03/26 02:28:14;;;;;;;11.33;8.70;;;;;;;;;;4976658;28;20523;-76
2021/03/26 02:30:43;;;;;;;11.60;9.20;;;;;;;;;;4976782;28;20777;-77
2021/03/26 02:33:09;;;;;;;10.63;8.43;;;;;;;;;;4976486;28;20426;-77
2021/03/26 02:35:37;;;;;;;12.60;9.20;;;;;;;;;;4976353;28;20461;-78
2021/03/26 02:38:12;;;;;;;11.60;8.20;;;;;;;;;;4976547;28;20821;-77
2021/03/26 02:40:43;;;;;;;10.87;9.50;;;;;;;;;;4976191;28;20734;-76
2021/03/26 02:43:30;;;;;;;11.80;8.90;;;;;;;;;;4976180;28;20410;-77
2021/03/26 02:46:04;;;;;;;11.07;8.40;;;;;;;;;;4959705;28;20438;-78
2021/03/26 02:48:45;;;;;;;10.37;9.10;;;;;;;;;;4976120;28;20905;-76
2021/03/26 02:51:16;;;;;;;10.10;8.63;;;;;;;;;;4976278;28;20407;-78
2021/03/26 02:54:11;;;;;;;11.10;8.07;;;;;;;;;;4976266;28;20445;-77
2021/03/26 02:56:41;;;;;;;10.50;8.57;;;;;;;;;;4891111;28;20506;-77
2021/03/26 02:59:21;;;;;;;9.33;7.90;;;;;;;;;;4976128;28;20419;-77
2021/03/26 03:01:51;;;;;;;16.90;8.87;;;;;;;;;;4976084;28;20685;-76
2021/03/26 03:04:28;;;;;;;15.90;8.87;;;;;;;;;;4975854;28;20470;-77
2021/03/26 03:06:58;;;;;;;12.17;8.73;;;;;;;;;;4976086;28;20478;-77
2021/03/26 03:09:25;;;;;;;11.30;8.50;;;;;;;;;;4976081;28;20522;-77
2021/03/26 03:11:56;;;;;;;11.83;10.37;;;;;;;;;;4976007;28;20766;-77
2021/03/26 03:14:25;;;;;;;14.97;8.43;;;;;;;;;;4975884;28;20465;-77
2021/03/26 03:16:54;;;;;;;17.40;10.27;;;;;;;;;;4975747;28;20421;-77
2021/03/26 03:19:26;;;;;;;10.73;8.73;;;;;;;;;;4975778;28;20455;-77
2021/03/26 03:22:16;;;;;;;9.97;8.87;;;;;;;;;;4975549;28;20466;-77
2021/03/26 03:24:43;;;;;;;12.37;8.53;;;;;;;;;;4963359;28;20590;-77
2021/03/26 03:27:18;;;;;;;9.80;8.77;;;;;;;;;;4975580;28;20641;-77
2021/03/26 03:29:49;;;;;;;12.17;8.83;;;;;;;;;;4975743;28;20778;-78
2021/03/26 03:32:38;;;;;;;12.30;8.97;;;;;;;;;;4975659;28;20581;-78
2021/03/26 03:35:13;;;;;;;9.17;8.10;;;;;;;;;;4974839;28;20796;-77
2021/03/26 03:37:59;;;;;;;11.73;8.93;;;;;;;;;;4975469;28;20421;-77
2021/03/26 03:40:25;;;;;;;12.03;9.10;;;;;;;;;;4926991;28;20803;-78
2021/03/26 03:43:02;;;;;;;9.40;8.27;;;;;;;;;;4975412;28;20464;-78
2021/03/26 03:45:33;;;;;;;10.20;8.97;;;;;;;;;;4975339;28;20426;-78
2021/03/26 03:48:05;;;;;;;11.57;8.80;;;;;;;;;;4975298;28;20417;-78
2021/03/26 03:50:50;;;;;;;16.43;8.70;;;;;;;;;;4957672;28;20513;-77
2021/03/26 03:53:21;;;;;;;11.53;9.17;;;;;;;;;;4975179;28;20467;-77
2021/03/26 03:55:50;;;;;;;11.47;8.93;;;;;;;;;;4975027;28;20423;-77
2021/03/26 03:58:33;;;;;;;11.47;9.13;;;;;;;;;;4975127;28;20458;-77
2021/03/26 04:01:06;;;;;;;9.47;8.47;;;;;;;;;;4974998;28;20426;-78
2021/03/26 04:03:34;;;;;;;13.30;9.40;;;;;;;;;;4974770;28;20455;-78
2021/03/26 04:06:07;;;;;;;11.20;8.23;;;;;;;;;;4975041;28;20450;-79
2021/03/26 04:11:44;;;;;;;10.67;8.27;;;;;;;;;;4974921;28;20497;-77
2021/03/26 04:14:10;;;;;;;14.10;9.47;;;;;;;;;;4974735;28;20783;-76
2021/03/26 04:16:37;;;;;;;11.97;9.47;;;;;;;;;;4974752;28;20411;-75
2021/03/26 04:19:15;;;;;;;9.00;8.10;;;;;;;;;;4974639;28;20710;-78
2021/03/26 04:21:42;;;;;;;11.23;7.97;;;;;;;;;;4974757;28;20476;-77
2021/03/26 04:27:33;;;;;;;13.63;8.70;;;;;;;;;;4974718;28;20472;-77
2021/03/26 04:30:02;;;;;;;11.07;9.20;;;;;;;;;;4974598;28;20426;-76
2021/03/26 04:32:28;;;;;;;10.90;8.83;;;;;;;;;;4974460;28;20813;-77
2021/03/26 04:34:55;;;;;;;15.40;9.97;;;;;;;;;;4974178;28;20470;-77
2021/03/26 04:37:26;;;;;;;10.13;8.07;;;;;;;;;;4974436;28;20497;-76
2021/03/26 04:42:59;;;;;;;12.67;9.53;;;;;;;;;;4974430;28;20416;-77
2021/03/26 04:45:24;;;;;;;12.63;8.20;;;;;;;;;;4973699;28;20605;-77
2021/03/26 04:47:53;;;;;;;14.33;10.40;;;;;;;;;;4974472;28;20487;-78
2021/03/26 04:50:49;;;;;;;13.53;10.60;;;;;;;;;;4974143;28;20422;-78
2021/03/26 04:53:16;;;;;;;15.40;10.87;;;;;;;;;;4953496;28;21012;-77
2021/03/26 04:58:49;;;;;;;12.20;9.47;;;;;;;;;;4974070;28;20578;-76
2021/03/26 05:01:17;;;;;;;10.83;9.30;;;;;;;;;;4973900;28;20423;-77
2021/03/26 05:03:45;;;;;;;15.33;9.90;;;;;;;;;;4973805;28;20458;-78
2021/03/26 05:06:14;;;;;;;15.93;11.00;;;;;;;;;;4973993;28;20441;-78
2021/03/26 05:08:43;;;;;;;13.53;10.33;;;;;;;;;;4974368;28;20814;-77
2021/03/26 05:14:31;;;;;;;15.30;10.20;;;;;;;;;;4973972;28;20421;-78
2021/03/26 05:16:59;;;;;;;14.83;9.73;;;;;;;;;;4973914;28;20490;-76
2021/03/26 05:19:32;;;;;;;12.17;10.37;;;;;;;;;;4973838;28;20442;-77
2021/03/26 05:22:13;;;;;;;12.20;9.73;;;;;;;;;;4973794;28;20843;-77
2021/03/26 05:24:51;;;;;;;14.80;9.50;;;;;;;;;;4973628;28;20518;-78
2021/03/26 05:27:18;;;;;;;15.50;11.47;;;;;;;;;;4973840;28;20761;-78
2021/03/26 05:29:44;;;;;;;16.40;10.37;;;;;;;;;;4973751;28;20421;-78
2021/03/26 05:32:15;;;;;;;14.23;9.83;;;;;;;;;;4973701;28;20521;-78
2021/03/26 05:34:45;;;;;;;14.17;10.30;;;;;;;;;;4973148;28;20640;-78
2021/03/26 05:37:24;;;;;;;13.60;10.00;;;;;;;;;;4973730;28;20437;-77
2021/03/26 05:40:13;;;;;;;18.17;11.30;;;;;;;;;;4973785;28;20865;-77
2021/03/26 05:42:44;;;;;;;16.43;10.77;;;;;;;;;;4972424;28;20430;-77
2021/03/26 05:45:11;;;;;;;17.67;11.47;;;;;;;;;;4973620;28;20476;-77
2021/03/26 05:47:36;;;;;;;17.27;11.57;;;;;;;;;;4973553;28;20757;-76
2021/03/26 05:50:11;;;;;;;16.97;11.70;;;;;;;;;;4973308;28;20438;-77
2021/03/26 05:52:46;;;;;;;18.17;11.93;;;;;;;;;;4973191;28;20416;-76
2021/03/26 05:55:31;;;;;;;19.00;12.63;;;;;;;;;;4973384;28;20423;-77
2021/03/26 05:58:06;;;;;;;13.90;11.00;;;;;;;;;;4976615;28;20792;-77
2021/03/26 06:01:07;;;;;;;19.63;13.17;;;;;;;;;;4976939;28;20426;-76
2021/03/26 06:03:42;;;;;;;18.83;13.77;;;;;;;;;;4879655;29;20478;-76
2021/03/26 06:06:19;;;;;;;19.40;12.40;;;;;;;;;;4945953;28;20933;-77
2021/03/26 06:09:04;;;;;;;16.50;11.27;;;;;;;;;;4976600;28;20422;-77
2021/03/26 06:11:49;;;;;;;13.60;11.37;;;;;;;;;;4977149;28;20825;-79
2021/03/26 06:14:23;;;;;;;17.10;11.50;;;;;;;;;;4976759;28;20419;-77
2021/03/26 06:16:55;;;;;;;18.67;11.30;;;;;;;;;;4976835;28;20410;-78
2021/03/26 06:19:40;;;;;;;16.23;11.80;;;;;;;;;;4976828;28;20433;-79
2021/03/26 06:22:06;;;;;;;14.20;11.73;;;;;;;;;;4977239;28;20869;-79
2021/03/26 06:27:40;;;;;;;13.87;10.33;;;;;;;;;;4976725;28;20810;-81
2021/03/26 06:30:22;;;;;;;22.67;11.23;;;;;;;;;;4977032;28;20443;-79
2021/03/26 06:32:54;;;;;;;14.30;10.53;;;;;;;;;;4976233;28;20752;-79
2021/03/26 06:35:33;;;;;;;16.90;11.37;;;;;;;;;;4975944;28;20462;-78
2021/03/26 06:38:17;;;;;;;14.50;11.80;;;;;;;;;;4976070;28;20418;-78
2021/03/26 06:43:50;;;;;;;16.03;11.07;;;;;;;;;;4976313;28;20517;-78
2021/03/26 06:46:25;;;;;;;13.90;11.43;;;;;;;;;;4976073;28;20421;-77
2021/03/26 06:49:10;;;;;;;15.13;11.90;;;;;;;;;;4975948;28;20504;-78
2021/03/26 06:51:52;;;;;;;22.50;13.20;;;;;;;;;;4975123;28;20469;-78
2021/03/26 07:00:31;;;;;;;19.70;11.93;;;;;;;;;;4975165;28;20422;-77
2021/03/26 07:03:12;;;;;;;23.33;12.17;;;;;;;;;;4975141;28;20430;-77
2021/03/26 07:05:45;;;;;;;21.63;12.47;;;;;;;;;;4975177;28;20437;-77
2021/03/26 07:08:14;;;;;;;20.30;12.93;;;;;;;;;;4974659;28;20426;-78
2021/03/26 07:10:52;;;;;;;19.40;11.30;;;;;;;;;;4975012;28;20419;-77
2021/03/26 07:13:21;;;;;;;22.47;13.50;;;;;;;;;;4974955;28;20424;-77
2021/03/26 07:16:01;;;;;;;21.10;11.00;;;;;;;;;;4974922;28;20422;-78
2021/03/26 07:18:27;;;;;;;21.37;14.93;;;;;;;;;;4975074;28;20425;-78
2021/03/26 07:20:53;;;;;;;20.33;12.27;;;;;;;;;;4974923;28;20914;-76
2021/03/26 07:23:37;;;;;;;27.80;12.50;;;;;;;;;;4957581;28;20493;-79
2021/03/26 07:26:03;;;;;;;19.47;12.07;;;;;;;;;;4974870;28;20458;-76
2021/03/26 07:28:45;;;;;;;20.10;12.63;;;;;;;;;;4974927;28;20419;-78
2021/03/26 07:31:17;;;;;;;15.03;11.30;;;;;;;;;;4957654;28;20449;-79
2021/03/26 07:33:47;;;;;;;16.40;11.80;;;;;;;;;;4974420;28;20462;-80
2021/03/26 07:36:19;;;;;;;19.67;12.50;;;;;;;;;;4974543;28;20419;-77
2021/03/26 07:38:55;;;;;;;22.83;13.60;;;;;;;;;;4974576;28;20434;-77
2021/03/26 07:41:31;;;;;;;16.07;12.10;;;;;;;;;;4974686;28;20494;-75
2021/03/26 07:44:17;;;;;;;21.07;12.53;;;;;;;;;;4974791;28;20905;-78
2021/03/26 07:46:49;;;;;;;16.57;12.47;;;;;;;;;;4974645;28;20713;-78
2021/03/26 07:49:40;;;;;;;18.27;12.93;;;;;;;;;;4974343;28;20885;-77
2021/03/26 07:52:18;;;;;;;14.00;11.33;;;;;;;;;;4974346;28;20490;-77
2021/03/26 07:54:44;;;;;;;14.03;12.17;;;;;;;;;;4974964;28;20851;-77
2021/03/26 07:57:10;;;;;;;15.13;11.20;;;;;;;;;;4974530;28;20426;-77
2021/03/26 07:59:49;;;;;;;15.60;10.77;;;;;;;;;;4974134;28;20415;-77
2021/03/26 08:02:28;;;;;;;21.30;12.10;;;;;;;;;;4974229;28;20419;-77
2021/03/26 08:05:00;;;;;;;14.20;10.97;;;;;;;;;;4973837;28;20473;-78
2021/03/26 08:07:26;;;;;;;13.50;10.23;;;;;;;;;;4974107;28;20439;-78
2021/03/26 08:13:11;;;;;;;10.50;8.50;;;;;;;;;;4974108;28;20503;-78
2021/03/26 08:15:41;;;;;;;9.73;8.43;;;;;;;;;;4974116;28;20506;-78
2021/03/26 08:18:23;;;;;;;10.80;8.53;;;;;;;;;;4956234;28;20438;-77
2021/03/26 08:21:01;;;;;;;15.20;8.60;;;;;;;;;;4955678;28;20430;-79
2021/03/26 08:23:30;;;;;;;8.97;7.73;;;;;;;;;;4973672;28;20419;-78
2021/03/26 08:29:00;;;;;;;9.00;7.87;;;;;;;;;;4973807;28;20433;-77
2021/03/26 08:31:41;;;;;;;8.33;7.50;;;;;;;;;;4973652;28;20418;-79
2021/03/26 08:34:13;;;;;;;12.93;8.60;;;;;;;;;;4973106;28;20939;-78
2021/03/26 08:36:51;;;;;;;9.27;8.37;;;;;;;;;;4973397;28;20438;-77
2021/03/26 08:39:17;;;;;;;10.17;7.60;;;;;;;;;;4973366;28;20423;-77
2021/03/26 08:44:57;;;;;;;11.40;9.03;;;;;;;;;;4973468;28;20505;-79
2021/03/26 08:47:26;;;;;;;10.77;9.17;;;;;;;;;;4974226;28;20429;-79
2021/03/26 08:49:54;;;;;;;9.43;8.47;;;;;;;;;;4973781;28;20853;-79
2021/03/26 08:52:25;;;;;;;9.83;8.80;;;;;;;;;;4973786;28;20439;-78
2021/03/26 08:55:10;;;;;;;13.10;9.23;;;;;;;;;;4973831;28;20747;-80
2021/03/26 09:00:58;;;;;;;10.37;8.30;;;;;;;;;;4972331;28;20433;-82
2021/03/26 09:03:24;;;;;;;12.63;10.73;;;;;;;;;;4971678;28;20418;-77
2021/03/26 09:06:09;;;;;;;10.73;9.13;;;;;;;;;;4972114;28;20905;-78
2021/03/26 09:08:37;;;;;;;11.93;10.53;;;;;;;;;;4971974;28;20421;-79
2021/03/26 09:11:15;;;;;;;15.23;9.47;;;;;;;;;;4971930;28;20513;-78
2021/03/26 09:13:44;;;;;;;11.17;9.97;;;;;;;;;;4972173;28;20414;-80
2021/03/26 09:16:43;;;;;;;10.50;9.40;;;;;;;;;;4972037;28;20427;-78
2021/03/26 09:19:15;;;;;;;12.83;11.10;;;;;;;;;;4919617;28;20442;-79
2021/03/26 09:21:41;;;;;;;14.23;9.97;;;;;;;;;;4954839;28;20784;-78
2021/03/26 09:24:23;;;;;;;10.90;9.80;;;;;;;;;;4971915;28;21130;-80
2021/03/26 09:26:55;;;;;;;11.97;9.80;;;;;;;;;;4972167;28;20939;-81
2021/03/26 09:29:51;;;;;;;11.50;10.40;;;;;;;;;;4972362;28;20418;-78
2021/03/26 09:32:21;;;;;;;11.47;10.30;;;;;;;;;;4954086;28;20433;-81
2021/03/26 09:34:50;;;;;;;11.40;10.20;;;;;;;;;;4975241;28;20463;-80
2021/03/26 09:37:28;;;;;;;10.00;9.10;;;;;;;;;;4975915;28;20833;-81
2021/03/26 09:39:58;;;;;;;12.50;9.70;;;;;;;;;;4975225;28;20437;-79
2021/03/26 09:42:27;;;;;;;11.40;8.87;;;;;;;;;;4978025;28;20410;-86
2021/03/26 09:45:02;;;;;;;11.13;9.93;;;;;;;;;;4977230;28;20505;-83
2021/03/26 09:47:51;;;;;;;9.87;8.87;;;;;;;;;;4976213;28;20844;-83
2021/03/26 09:50:23;;;;;;;12.87;8.97;;;;;;;;;;4930433;28;20487;-82
2021/03/26 09:52:49;;;;;;;10.83;9.80;;;;;;;;;;4974956;28;20419;-78
2021/03/26 09:55:20;;;;;;;10.77;9.67;;;;;;;;;;4975505;28;20501;-79
2021/03/26 09:57:54;;;;;;;16.57;10.33;;;;;;;;;;4958330;28;20828;-82
2021/03/26 10:00:39;;;;;;;12.53;9.60;;;;;;;;;;4976195;28;20422;-81
2021/03/26 10:03:17;;;;;;;12.17;9.40;;;;;;;;;;4975937;28;20432;-82
2021/03/26 10:06:09;;;;;;;11.73;10.10;;;;;;;;;;4977285;28;20500;-80
2021/03/26 10:14:35;;;;;;;13.87;9.57;;;;;;;;;;4976439;28;20417;-82
2021/03/26 10:17:01;;;;;;;12.20;9.70;;;;;;;;;;4975645;28;20426;-84
2021/03/26 10:19:30;;;;;;;9.73;8.83;;;;;;;;;;4975598;28;20418;-81
2021/03/26 10:21:59;;;;;;;9.60;7.40;;;;;;;;;;4975412;28;20510;-82
2021/03/26 10:24:32;;;;;;;7.83;7.13;;;;;;;;;;4982783;28;20506;-80
2021/03/26 10:30:07;;;;;;;8.57;7.77;;;;;;;;;;4980437;28;20429;-87
2021/03/26 10:32:34;;;;;;;8.93;7.17;;;;;;;;;;4978751;28;20986;-89
2021/03/26 10:35:10;;;;;;;9.37;6.73;;;;;;;;;;4975511;28;20987;-80
2021/03/26 10:37:42;;;;;;;9.00;7.90;;;;;;;;;;4973406;28;20465;-81
2021/03/26 10:40:26;;;;;;;8.63;7.43;;;;;;;;;;4973128;28;20422;-83
2021/03/26 10:46:00;;;;;;;9.60;7.20;;;;;;;;;;4973873;28;20437;-76
2021/03/26 10:48:25;;;;;;;7.70;7.00;;;;;;;;;;4973972;28;20953;-75
2021/03/26 10:51:17;;;;;;;7.07;6.30;;;;;;;;;;4973404;28;20418;-78
2021/03/26 10:53:50;;;;;;;14.27;7.20;;;;;;;;;;4973520;28;21039;-77
2021/03/26 10:56:35;;;;;;;5.87;5.27;;;;;;;;;;4974069;28;20442;-78
2021/03/26 10:59:03;;;;;;;8.97;6.13;;;;;;;;;;4973961;28;20424;-76
2021/03/26 11:01:39;;;;;;;6.13;5.53;;;;;;;;;;4973852;28;20411;-77
2021/03/26 11:04:31;;;;;;;8.57;6.17;;;;;;;;;;4974396;28;21031;-77
2021/03/26 11:07:09;;;;;;;4.67;4.27;;;;;;;;;;4970483;28;20434;-77
2021/03/26 11:09:46;;;;;;;5.93;4.30;;;;;;;;;;4957327;28;20433;-75
2021/03/26 11:12:24;;;;;;;7.10;4.90;;;;;;;;;;4974686;28;20422;-75
2021/03/26 11:15:18;;;;;;;5.37;4.10;;;;;;;;;;4974766;28;20422;-78
2021/03/26 11:18:02;;;;;;;4.30;3.90;;;;;;;;;;4974490;28;20488;-77
2021/03/26 11:20:29;;;;;;;5.77;3.97;;;;;;;;;;4974446;28;20505;-76
2021/03/26 11:23:04;;;;;;;5.37;4.53;;;;;;;;;;4974122;28;20960;-76
2021/03/26 11:25:35;;;;;;;4.67;4.20;;;;;;;;;;4974217;28;20482;-77
2021/03/26 11:28:04;;;;;;;4.97;4.13;;;;;;;;;;4973418;28;20481;-76
2021/03/26 11:30:36;;;;;;;5.17;4.67;;;;;;;;;;4973808;28;20493;-75
2021/03/26 11:33:20;;;;;;;4.37;3.73;;;;;;;;;;4973315;28;20414;-76
2021/03/26 11:35:47;;;;;;;4.90;4.40;;;;;;;;;;4955229;28;21060;-76
2021/03/26 11:38:20;;;;;;;5.57;5.07;;;;;;;;;;4972997;28;20411;-76
2021/03/26 11:41:06;;;;;;;7.97;4.80;;;;;;;;;;4973411;28;20423;-75
2021/03/26 11:43:37;;;;;;;5.63;4.93;;;;;;;;;;4957157;28;20937;-75
2021/03/26 11:46:06;;;;;;;5.57;4.10;;;;;;;;;;4973628;28;20422;-76
2021/03/26 11:48:35;;;;;;;6.20;5.10;;;;;;;;;;4973799;28;20494;-77
2021/03/26 11:51:20;;;;;;;6.77;6.07;;;;;;;;;;4971838;28;20506;-83
2021/03/26 11:53:49;;;;;;;11.10;6.00;;;;;;;;;;4972872;28;20450;-83
2021/03/26 11:59:37;;;;;;;8.23;5.50;;;;;;;;;;4975678;28;20458;-84
2021/03/26 12:02:22;;;;;;;7.23;5.63;;;;;;;;;;4955984;28;20434;-83
2021/03/26 12:04:54;;;;;;;7.77;6.30;;;;;;;;;;4972799;28;20478;-84
2021/03/26 12:07:47;;;;;;;6.70;5.43;;;;;;;;;;4972404;28;20422;-82
2021/03/26 12:10:15;;;;;;;6.70;6.03;;;;;;;;;;4936404;28;20526;-86
2021/03/26 12:15:58;;;;;;;6.43;5.83;;;;;;;;;;4972860;28;20418;-80
2021/03/26 12:18:42;;;;;;;10.97;4.97;;;;;;;;;;4972654;28;20427;-83
2021/03/26 12:21:25;;;;;;;5.93;5.33;;;;;;;;;;4972324;28;20814;-83
2021/03/26 12:24:19;;;;;;;5.17;4.13;;;;;;;;;;4972754;28;21038;-83
2021/03/26 12:27:05;;;;;;;6.80;4.77;;;;;;;;;;4972734;28;20521;-83
2021/03/26 12:29:45;;;;;;;6.40;4.97;;;;;;;;;;4972475;28;20458;-80
2021/03/26 12:32:27;;;;;;;5.40;4.80;;;;;;;;;;4972195;28;20418;-81
2021/03/26 12:34:53;;;;;;;5.13;4.63;;;;;;;;;;4971679;28;20537;-80
2021/03/26 12:37:23;;;;;;;4.17;3.80;;;;;;;;;;4972137;28;20458;-80
2021/03/26 12:39:56;;;;;;;4.80;4.27;;;;;;;;;;4969667;28;20410;-82
2021/03/26 12:42:24;;;;;;;4.87;4.20;;;;;;;;;;4970500;28;20430;-82
2021/03/26 12:45:04;;;;;;;9.30;4.47;;;;;;;;;;4954184;28;20811;-81
2021/03/26 12:47:35;;;;;;;4.93;4.13;;;;;;;;;;4972084;28;20446;-80
2021/03/26 12:50:13;;;;;;;5.67;5.13;;;;;;;;;;4971641;28;20489;-82
2021/03/26 12:52:55;;;;;;;6.27;4.90;;;;;;;;;;4971996;28;20493;-79
2021/03/26 12:55:27;;;;;;;5.20;4.70;;;;;;;;;;4971897;28;20490;-80
2021/03/26 12:57:53;;;;;;;5.17;4.67;;;;;;;;;;4971716;28;20433;-80
2021/03/26 13:00:19;;;;;;;5.90;5.13;;;;;;;;;;4972039;28;20411;-79
2021/03/26 13:02:53;;;;;;;10.37;5.93;;;;;;;;;;4971796;28;20837;-80
2021/03/26 13:05:21;;;;;;;6.63;5.00;;;;;;;;;;4971331;28;21037;-80
2021/03/26 13:07:47;;;;;;;5.07;4.20;;;;;;;;;;4970190;28;20411;-82
2021/03/26 13:10:13;;;;;;;7.13;5.50;;;;;;;;;;4970213;28;20423;-83
2021/03/26 13:12:39;;;;;;;6.97;5.70;;;;;;;;;;4970523;28;20442;-83
2021/03/26 13:15:25;;;;;;;6.43;4.87;;;;;;;;;;4972253;28;20417;-83
2021/03/26 13:18:11;;;;;;;5.73;5.13;;;;;;;;;;4973016;28;20454;-84
2021/03/26 13:20:57;;;;;;;6.20;5.43;;;;;;;;;;4972972;28;20910;-82
2021/03/26 13:23:25;;;;;;;5.77;5.20;;;;;;;;;;4971486;28;20501;-81
2021/03/26 13:25:56;;;;;;;4.10;3.77;;;;;;;;;;4953611;28;20497;-84
2021/03/26 13:28:27;;;;;;;4.70;4.30;;;;;;;;;;4971946;28;20418;-84
2021/03/26 13:30:53;;;;;;;3.90;3.23;;;;;;;;;;4971970;28;20414;-83
2021/03/26 13:33:21;;;;;;;3.90;3.60;;;;;;;;;;4971858;28;20465;-80
2021/03/26 13:36:07;;;;;;;4.90;3.83;;;;;;;;;;4970771;28;20496;-79
2021/03/26 13:38:33;;;;;;;4.27;3.87;;;;;;;;;;4971853;28;20522;-80
2021/03/26 13:41:01;;;;;;;9.63;4.30;;;;;;;;;;4972235;28;20921;-81
2021/03/26 13:43:29;;;;;;;4.40;4.00;;;;;;;;;;4971462;28;20457;-83
2021/03/26 13:46:03;;;;;;;5.37;4.60;;;;;;;;;;4971634;28;20455;-81
2021/03/26 13:48:31;;;;;;;6.00;3.80;;;;;;;;;;4971630;28;20407;-83
2021/03/26 13:51:03;;;;;;;4.50;3.80;;;;;;;;;;4971807;28;20894;-81
2021/03/26 13:53:37;;;;;;;3.20;2.90;;;;;;;;;;4971152;28;20443;-82
2021/03/26 13:56:09;;;;;;;6.63;3.30;;;;;;;;;;4971797;28;20428;-79
2021/03/26 13:58:42;;;;;;;4.60;2.97;;;;;;;;;;4971473;28;20414;-79
2021/03/26 14:01:28;;;;;;;3.80;3.50;;;;;;;;;;4971697;28;20442;-79
2021/03/26 14:04:00;;;;;;;5.47;3.60;;;;;;;;;;4954888;28;20482;-79
2021/03/26 14:06:41;;;;;;;4.17;3.77;;;;;;;;;;4954318;28;20950;-81
2021/03/26 14:09:17;;;;;;;5.57;4.20;;;;;;;;;;4954359;28;20928;-81
2021/03/26 14:11:51;;;;;;;4.07;3.20;;;;;;;;;;4971814;28;20414;-79
2021/03/26 14:14:27;;;;;;;3.83;3.43;;;;;;;;;;4971642;28;20414;-80
2021/03/26 14:16:58;;;;;;;3.90;2.97;;;;;;;;;;4971689;28;20410;-82
2021/03/26 14:19:39;;;;;;;3.90;2.80;;;;;;;;;;4973903;28;20423;-80
2021/03/26 14:22:24;;;;;;;6.27;2.93;;;;;;;;;;4975457;28;20824;-83
2021/03/26 14:25:08;;;;;;;5.70;3.13;;;;;;;;;;4975494;28;20497;-82
2021/03/26 14:30:50;;;;;;;2.70;2.50;;;;;;;;;;4975410;28;20425;-82
2021/03/26 14:33:16;;;;;;;5.13;2.47;;;;;;;;;;4975055;28;20418;-82
2021/03/26 14:35:45;;;;;;;3.10;2.60;;;;;;;;;;4975176;28;20556;-84
2021/03/26 14:38:30;;;;;;;2.60;2.40;;;;;;;;;;4975036;28;20478;-77
2021/03/26 14:41:18;;;;;;;2.60;2.40;;;;;;;;;;4975092;28;20419;-84
2021/03/26 14:46:57;;;;;;;2.93;2.60;;;;;;;;;;4974966;28;20425;-80
2021/03/26 14:49:26;;;;;;;3.00;2.50;;;;;;;;;;4974850;28;20456;-82
2021/03/26 14:52:15;;;;;;;3.63;2.43;;;;;;;;;;4974885;28;20426;-79
2021/03/26 14:54:44;;;;;;;2.90;2.33;;;;;;;;;;4974575;28;20449;-80
2021/03/26 14:57:13;;;;;;;2.97;2.67;;;;;;;;;;4974915;28;20418;-84
2021/03/26 15:02:52;;;;;;;3.40;3.10;;;;;;;;;;4975107;28;20457;-83
2021/03/26 15:05:25;;;;;;;3.60;3.10;;;;;;;;;;4974804;28;20995;-82
2021/03/26 15:07:53;;;;;;;4.87;3.20;;;;;;;;;;4975865;28;20553;-81
2021/03/26 15:10:38;;;;;;;5.27;3.20;;;;;;;;;;4976059;28;20422;-85
2021/03/26 15:13:06;;;;;;;5.10;3.30;;;;;;;;;;4974568;28;20502;-82
2021/03/26 15:15:53;;;;;;;4.70;2.93;;;;;;;;;;4973403;28;20953;-84
2021/03/26 15:18:25;;;;;;;6.10;3.30;;;;;;;;;;4973924;28;20434;-85
2021/03/26 15:21:06;;;;;;;3.37;2.93;;;;;;;;;;4973805;28;20438;-83
2021/03/26 15:23:49;;;;;;;6.23;3.70;;;;;;;;;;4973535;28;20425;-85
2021/03/26 15:26:23;;;;;;;3.40;2.97;;;;;;;;;;4973446;28;20422;-84
2021/03/26 15:28:54;;;;;;;3.77;3.10;;;;;;;;;;4972883;28;21055;-82
2021/03/26 15:31:43;;;;;;;4.53;3.70;;;;;;;;;;4972943;28;20774;-84
2021/03/26 15:34:09;;;;;;;4.00;3.17;;;;;;;;;;4959756;28;20537;-82
2021/03/26 15:36:50;;;;;;;2.90;2.60;;;;;;;;;;4971567;28;20423;-84
2021/03/26 15:39:23;;;;;;;4.27;3.07;;;;;;;;;;4972053;28;20505;-79
2021/03/26 15:41:52;;;;;;;5.07;3.53;;;;;;;;;;4972319;28;20430;-81
2021/03/26 15:44:18;;;;;;;3.13;2.80;;;;;;;;;;4972356;28;20547;-82
2021/03/26 15:46:46;;;;;;;6.23;3.10;;;;;;;;;;4972179;28;20434;-80
2021/03/26 15:49:19;;;;;;;3.30;3.00;;;;;;;;;;4972833;28;20477;-82
2021/03/26 15:51:57;;;;;;;4.57;3.10;;;;;;;;;;4973609;28;20494;-82
2021/03/26 15:54:23;;;;;;;4.10;2.40;;;;;;;;;;4973864;28;20426;-80
2021/03/26 15:56:50;;;;;;;2.93;2.73;;;;;;;;;;4972641;28;21022;-82
2021/03/26 15:59:37;;;;;;;3.07;2.43;;;;;;;;;;4972918;28;20492;-82
2021/03/26 16:02:21;;;;;;;3.57;2.73;;;;;;;;;;4971449;28;20775;-82
2021/03/26 16:04:59;;;;;;;3.40;3.20;;;;;;;;;;4971477;28;20490;-82
2021/03/26 16:07:32;;;;;;;3.27;2.97;;;;;;;;;;4971228;28;20829;-79
2021/03/26 16:10:22;;;;;;;3.17;2.93;;;;;;;;;;4972219;28;20473;-78
2021/03/26 16:16:07;;;;;;;4.00;3.50;;;;;;;;;;4898291;28;20525;-77
2021/03/26 16:18:33;;;;;;;6.17;4.40;;;;;;;;;;4971125;28;20931;-78
2021/03/26 16:20:59;;;;;;;4.30;3.77;;;;;;;;;;4970799;28;20415;-79
2021/03/26 16:23:43;;;;;;;3.87;3.47;;;;;;;;;;4971572;28;20418;-78
2021/03/26 16:26:18;;;;;;;3.10;2.80;;;;;;;;;;4971209;28;20529;-79
2021/03/26 16:31:48;;;;;;;4.70;3.60;;;;;;;;;;4970898;28;20413;-80
2021/03/26 16:34:32;;;;;;;4.50;3.50;;;;;;;;;;4970464;28;20462;-81
2021/03/26 16:37:01;;;;;;;7.23;3.40;;;;;;;;;;4970625;28;20410;-80
2021/03/26 16:39:42;;;;;;;4.63;3.20;;;;;;;;;;4970836;28;20843;-78
2021/03/26 16:42:37;;;;;;;10.73;4.37;;;;;;;;;;4970852;28;20722;-79
2021/03/26 16:48:07;;;;;;;3.80;3.50;;;;;;;;;;4972137;28;20504;-78
2021/03/26 16:50:49;;;;;;;5.93;3.33;;;;;;;;;;4955164;28;20729;-83